Vero Beach, Florida
Current Conditions -  °F | °C
As of 5:53 AM on Friday 28 Nov 2014 (Local Time) from KVRB Reporting Station
Clear Clear  
Wind Chill: 39°   Ceiling: Unl
Heat Index: 45°   Visibility: 10mi
Dew Point: 39°   Wind: 13mph
Humidity: 80%   Direction: 310°NW
Pressure: 30.23"   Gusts: NA
Location:  27.64°N, 80.39°W
Report Text: KVRB 281053Z AUTO 31011KT 10SM CLR 07/04 A3023 RMK AO2 SLP237 T00720039
Loading
Personal Weather Stations






























Interactive Weather Map New forecast layout! Learn more

10-Day Weather Forecast

Advertisements
Track Severe Weather on mobile